Time;durP1;ratioP1;P1;durP2;ratioP2;P2;SDS_P1;SDS_P2;PMS_P1;PMS_P2;Temp;Humidity;BMP_temperature;BMP_pressure;BME280_temperature;BME280_humidity;BME280_pressure;Samples;Min_cycle;Max_cycle;Signal;HPM_P1;HPM_P2
2020/12/26 00:01:08;;;;;;;15.27;5.00;;;8.50;99.90;;;;;;5072814;28;20201;-81
2020/12/26 00:03:34;;;;;;;4.75;4.10;;;8.50;99.90;;;;;;5072464;28;20234;-81
2020/12/26 00:06:00;;;;;;;7.60;3.88;;;8.50;99.90;;;;;;5074959;28;20255;-81
2020/12/26 00:08:27;;;;;;;5.43;4.60;;;8.40;99.90;;;;;;5076344;28;20198;-81
2020/12/26 00:10:54;;;;;;;4.35;3.67;;;8.50;99.90;;;;;;5076286;28;20255;-81
2020/12/26 00:13:20;;;;;;;6.78;3.95;;;8.50;99.90;;;;;;5076362;28;20646;-81
2020/12/26 00:15:46;;;;;;;6.55;4.85;;;8.50;99.90;;;;;;5076130;28;20198;-81
2020/12/26 00:18:13;;;;;;;7.22;4.72;;;8.60;99.90;;;;;;5076097;28;20600;-81
2020/12/26 00:20:39;;;;;;;7.82;4.55;;;8.60;99.90;;;;;;5076060;28;20205;-81
2020/12/26 00:23:05;;;;;;;7.65;4.65;;;8.70;99.90;;;;;;5076108;28;20205;-82
2020/12/26 00:25:31;;;;;;;10.55;4.95;;;8.70;99.90;;;;;;5075874;28;20233;-83
2020/12/26 00:28:01;;;;;;;6.43;4.90;;;8.70;99.90;;;;;;5075967;28;20205;-81
2020/12/26 00:30:27;;;;;;;9.00;4.82;;;8.70;99.90;;;;;;5075851;28;20221;-82
2020/12/26 00:32:54;;;;;;;6.32;5.05;;;8.80;99.90;;;;;;5076017;28;20200;-82
2020/12/26 00:35:20;;;;;;;8.45;5.20;;;8.80;99.90;;;;;;5075822;28;20191;-81
2020/12/26 00:37:46;;;;;;;13.77;4.70;;;8.80;99.90;;;;;;5075852;28;20649;-81
2020/12/26 00:40:12;;;;;;;7.25;5.75;;;8.70;99.90;;;;;;5075822;28;20553;-81
2020/12/26 00:42:39;;;;;;;7.22;4.65;;;8.70;99.90;;;;;;5075537;28;20262;-81
2020/12/26 00:45:06;;;;;;;9.95;5.00;;;8.70;99.90;;;;;;5075669;28;20222;-81
2020/12/26 00:47:32;;;;;;;4.63;4.20;;;8.70;99.90;;;;;;5075528;28;20653;-82
2020/12/26 00:49:58;;;;;;;8.77;5.40;;;8.70;99.90;;;;;;5075692;28;20194;-81
2020/12/26 00:52:24;;;;;;;7.15;4.80;;;8.80;99.90;;;;;;5075693;28;20530;-82
2020/12/26 00:54:50;;;;;;;4.68;4.28;;;8.70;99.90;;;;;;5075409;28;20222;-82
2020/12/26 00:57:17;;;;;;;8.55;4.80;;;8.70;99.90;;;;;;5075692;28;20202;-81
2020/12/26 00:59:43;;;;;;;13.18;5.15;;;8.80;99.90;;;;;;5075561;28;20194;-81
2020/12/26 01:02:10;;;;;;;7.78;5.00;;;8.80;99.90;;;;;;5075430;28;20191;-81
2020/12/26 01:04:36;;;;;;;8.57;4.93;;;8.80;99.90;;;;;;5075018;28;20606;-82
2020/12/26 01:07:02;;;;;;;10.75;5.35;;;8.80;99.90;;;;;;5075426;28;20195;-81
2020/12/26 01:09:28;;;;;;;9.20;4.97;;;8.80;99.90;;;;;;5075297;28;20208;-81
2020/12/26 01:11:55;;;;;;;7.65;4.45;;;8.80;99.90;;;;;;5075055;28;20194;-82
2020/12/26 01:14:21;;;;;;;8.90;4.88;;;8.80;99.90;;;;;;5075140;28;20251;-82
2020/12/26 01:16:49;;;;;;;7.68;5.68;;;8.80;99.90;;;;;;5074737;28;20190;-82
2020/12/26 01:19:17;;;;;;;9.38;5.35;;;8.80;99.90;;;;;;5075148;28;20194;-81
2020/12/26 01:21:43;;;;;;;7.97;5.35;;;8.80;99.90;;;;;;5075047;28;20220;-82
2020/12/26 01:24:09;;;;;;;5.97;5.45;;;8.90;99.90;;;;;;5074416;28;20630;-81
2020/12/26 01:26:35;;;;;;;7.28;6.15;;;8.80;99.90;;;;;;5075007;28;20194;-81
2020/12/26 01:29:02;;;;;;;13.27;6.20;;;8.80;99.90;;;;;;5074898;28;20557;-82
2020/12/26 01:31:28;;;;;;;7.55;5.63;;;8.80;99.90;;;;;;5074812;28;20201;-81
2020/12/26 01:33:54;;;;;;;7.70;6.32;;;8.80;99.90;;;;;;5074716;28;20244;-81
2020/12/26 01:36:21;;;;;;;7.75;5.63;;;8.90;99.90;;;;;;5074665;28;20198;-82
2020/12/26 01:38:47;;;;;;;6.22;5.30;;;8.90;99.90;;;;;;5074658;28;20198;-81
2020/12/26 01:41:15;;;;;;;7.95;4.80;;;8.90;99.90;;;;;;5074561;28;20194;-80
2020/12/26 01:43:54;;;;;;;7.15;5.82;;;8.80;99.90;;;;;;5074291;28;20252;-82
2020/12/26 01:46:20;;;;;;;6.10;5.50;;;8.80;99.90;;;;;;5074450;28;20273;-81
2020/12/26 01:48:46;;;;;;;10.40;5.68;;;8.70;99.90;;;;;;5074529;28;20198;-81
2020/12/26 01:51:13;;;;;;;5.50;4.50;;;8.80;99.90;;;;;;5074693;28;20198;-81
2020/12/26 01:53:40;;;;;;;8.85;4.70;;;8.80;99.90;;;;;;5074437;28;20206;-81
2020/12/26 01:56:06;;;;;;;8.63;5.25;;;8.80;99.90;;;;;;5074254;28;20201;-81
2020/12/26 01:58:35;;;;;;;5.88;5.28;;;8.80;99.90;;;;;;5074120;28;20198;-81
2020/12/26 02:01:01;;;;;;;9.63;6.13;;;8.70;99.90;;;;;;5074226;28;20222;-82
2020/12/26 02:03:28;;;;;;;8.07;5.73;;;8.70;99.90;;;;;;5074111;28;20229;-81
2020/12/26 02:05:55;;;;;;;7.13;5.13;;;8.70;99.90;;;;;;5074150;28;20205;-82
2020/12/26 02:08:21;;;;;;;6.40;5.20;;;8.70;99.90;;;;;;5074140;28;20191;-82
2020/12/26 02:10:48;;;;;;;10.93;5.22;;;8.70;99.90;;;;;;5074316;28;20198;-81
2020/12/26 02:13:14;;;;;;;8.82;5.45;;;8.80;99.90;;;;;;5074234;28;20510;-82
2020/12/26 02:15:40;;;;;;;6.82;5.80;;;8.80;99.90;;;;;;5073781;28;20205;-82
2020/12/26 02:18:07;;;;;;;7.80;5.50;;;8.70;99.90;;;;;;5073849;28;20206;-82
2020/12/26 02:20:33;;;;;;;7.50;5.75;;;8.70;99.90;;;;;;5073746;28;20248;-82
2020/12/26 02:23:02;;;;;;;8.88;5.40;;;8.80;99.90;;;;;;5073880;28;20191;-81
2020/12/26 02:25:29;;;;;;;9.90;5.85;;;8.70;99.90;;;;;;5073389;28;20291;-81
2020/12/26 02:27:55;;;;;;;8.02;4.88;;;8.70;99.90;;;;;;5073274;28;20649;-82
2020/12/26 02:30:22;;;;;;;12.07;6.53;;;8.80;99.90;;;;;;5073844;28;20195;-82
2020/12/26 02:32:48;;;;;;;7.70;5.20;;;8.80;99.90;;;;;;5073686;28;20190;-81
2020/12/26 02:35:14;;;;;;;11.02;5.88;;;8.60;99.90;;;;;;5073526;28;20556;-81
2020/12/26 02:37:40;;;;;;;11.15;6.18;;;8.70;99.90;;;;;;5073710;28;20605;-81
2020/12/26 02:40:06;;;;;;;8.00;5.82;;;8.70;99.90;;;;;;5073509;28;20198;-82
2020/12/26 02:42:33;;;;;;;9.70;5.15;;;8.70;99.90;;;;;;5073403;28;20271;-82
2020/12/26 02:45:00;;;;;;;7.15;5.13;;;8.60;99.90;;;;;;5073239;28;20585;-81
2020/12/26 02:47:26;;;;;;;10.52;5.38;;;8.60;99.90;;;;;;5073381;28;20209;-82
2020/12/26 02:49:52;;;;;;;8.07;5.63;;;8.70;99.90;;;;;;5073318;28;20533;-82
2020/12/26 02:52:18;;;;;;;10.10;5.25;;;8.60;99.90;;;;;;5073519;28;20198;-81
2020/12/26 02:54:44;;;;;;;6.00;5.40;;;8.60;99.90;;;;;;5073169;28;20214;-82
2020/12/26 02:57:10;;;;;;;7.43;4.80;;;8.60;99.90;;;;;;5073470;28;20199;-82
2020/12/26 02:59:37;;;;;;;10.20;5.35;;;8.60;99.90;;;;;;5073295;28;20653;-82
2020/12/26 03:02:04;;;;;;;7.97;4.80;;;8.60;99.90;;;;;;5073625;28;20194;-81
2020/12/26 03:04:30;;;;;;;9.20;5.55;;;8.60;99.90;;;;;;5072860;28;20230;-82
2020/12/26 03:06:56;;;;;;;6.18;4.70;;;8.60;99.90;;;;;;5073561;28;20194;-81
2020/12/26 03:09:22;;;;;;;8.52;5.10;;;8.60;99.90;;;;;;5073253;28;20641;-81
2020/12/26 03:11:48;;;;;;;12.63;4.65;;;8.60;99.90;;;;;;5073104;28;20205;-83
2020/12/26 03:14:14;;;;;;;9.10;4.63;;;8.60;99.90;;;;;;5073234;28;20199;-82
2020/12/26 03:16:42;;;;;;;9.98;5.43;;;8.60;99.90;;;;;;5073233;28;20198;-81
2020/12/26 03:19:08;;;;;;;6.05;4.93;;;8.50;99.90;;;;;;5073114;28;20202;-82
2020/12/26 03:21:34;;;;;;;7.93;5.15;;;8.50;99.90;;;;;;5073078;28;20213;-82
2020/12/26 03:24:00;;;;;;;6.72;4.80;;;8.60;99.90;;;;;;5072816;28;20685;-81
2020/12/26 03:26:26;;;;;;;8.70;5.07;;;8.60;99.90;;;;;;5073147;28;20205;-81
2020/12/26 03:28:53;;;;;;;5.88;4.80;;;8.60;99.90;;;;;;5072975;28;20190;-82
2020/12/26 03:31:19;;;;;;;9.27;5.22;;;8.60;99.90;;;;;;5072992;28;20202;-82
2020/12/26 03:33:46;;;;;;;6.90;4.72;;;8.60;99.90;;;;;;5072925;28;20558;-83
2020/12/26 03:36:12;;;;;;;12.05;5.13;;;8.70;99.90;;;;;;5072888;28;20676;-84
2020/12/26 03:38:38;;;;;;;6.07;4.00;;;8.60;99.90;;;;;;5072951;28;20190;-81
2020/12/26 03:41:04;;;;;;;5.18;4.53;;;8.70;99.90;;;;;;5076959;28;20645;-82
2020/12/26 03:43:31;;;;;;;10.25;6.72;;;8.70;99.90;;;;;;5076770;28;20198;-82
2020/12/26 03:45:57;;;;;;;6.57;6.00;;;8.70;99.90;;;;;;5076790;28;20692;-82
2020/12/26 03:48:23;;;;;;;5.07;4.57;;;8.70;99.90;;;;;;5076784;28;20194;-82
2020/12/26 03:50:50;;;;;;;8.73;6.15;;;8.70;99.90;;;;;;5076830;28;20202;-82
2020/12/26 03:53:16;;;;;;;7.18;5.47;;;8.70;99.90;;;;;;5076838;28;20205;-81
2020/12/26 03:55:42;;;;;;;5.88;4.85;;;8.70;99.90;;;;;;5076593;28;20221;-82
2020/12/26 03:58:09;;;;;;;10.93;5.00;;;8.80;99.90;;;;;;5076471;28;20549;-81
2020/12/26 04:00:35;;;;;;;5.22;4.72;;;8.80;99.90;;;;;;5076457;28;20198;-81
2020/12/26 04:03:01;;;;;;;12.98;4.00;;;8.80;99.90;;;;;;5076340;28;20197;-82
2020/12/26 04:05:27;;;;;;;5.95;5.10;;;8.80;99.90;;;;;;5076162;28;20275;-81
2020/12/26 04:07:54;;;;;;;9.10;5.28;;;8.80;99.90;;;;;;5076358;28;20198;-82
2020/12/26 04:10:20;;;;;;;8.15;5.85;;;8.70;99.90;;;;;;5076380;28;20202;-81
2020/12/26 04:12:47;;;;;;;8.02;6.15;;;8.80;99.90;;;;;;5076235;28;20555;-81
2020/12/26 04:15:13;;;;;;;7.88;5.03;;;8.80;99.90;;;;;;5076304;28;20199;-81
2020/12/26 04:17:39;;;;;;;7.55;5.18;;;8.80;99.90;;;;;;5076190;28;20609;-81
2020/12/26 04:20:06;;;;;;;8.10;6.03;;;8.70;99.90;;;;;;5076090;28;20198;-82
2020/12/26 04:22:32;;;;;;;14.98;5.97;;;8.70;99.90;;;;;;5076163;28;20228;-81
2020/12/26 04:24:59;;;;;;;6.40;5.30;;;8.80;99.90;;;;;;5075884;28;20576;-81
2020/12/26 04:27:25;;;;;;;6.40;5.03;;;8.80;99.90;;;;;;5075939;28;20520;-81
2020/12/26 04:29:51;;;;;;;8.35;5.05;;;8.80;99.90;;;;;;5076109;28;20194;-82
2020/12/26 04:32:18;;;;;;;5.95;4.97;;;8.80;99.90;;;;;;5075954;28;20198;-81
2020/12/26 04:34:47;;;;;;;5.20;4.57;;;8.80;99.90;;;;;;5076111;28;20205;-82
2020/12/26 04:37:13;;;;;;;13.35;5.72;;;8.80;99.90;;;;;;5076081;28;20201;-82
2020/12/26 04:39:41;;;;;;;6.50;5.50;;;8.80;99.90;;;;;;5075854;28;20209;-82
2020/12/26 04:42:09;;;;;;;10.05;5.95;;;8.80;99.90;;;;;;5075735;28;20194;-82
2020/12/26 04:44:35;;;;;;;7.43;4.78;;;8.70;99.90;;;;;;5075589;28;20218;-82
2020/12/26 04:47:07;;;;;;;7.05;4.85;;;8.70;99.90;;;;;;5075694;28;20641;-81
2020/12/26 04:49:36;;;;;;;7.95;5.10;;;8.70;99.90;;;;;;5075609;28;20194;-81
2020/12/26 04:52:03;;;;;;;6.07;5.35;;;8.80;99.90;;;;;;5075235;28;20202;-88
2020/12/26 04:54:33;;;;;;;6.10;5.15;;;8.70;99.90;;;;;;5075344;28;20221;-82
2020/12/26 04:57:00;;;;;;;6.40;4.78;;;8.70;99.90;;;;;;5075688;28;20205;-81
2020/12/26 04:59:27;;;;;;;7.22;5.35;;;8.70;99.90;;;;;;5075512;28;20194;-82
2020/12/26 05:01:53;;;;;;;9.38;5.45;;;8.70;99.90;;;;;;5075393;28;20654;-82
2020/12/26 05:04:20;;;;;;;6.85;5.13;;;8.70;99.90;;;;;;5074846;28;20633;-82
2020/12/26 05:06:48;;;;;;;10.68;5.38;;;8.70;99.90;;;;;;5075802;28;20198;-82
2020/12/26 05:09:16;;;;;;;10.05;5.68;;;8.70;99.90;;;;;;5075479;28;20194;-82
2020/12/26 05:11:49;;;;;;;8.23;5.82;;;8.70;99.90;;;;;;5075235;28;20198;-81
2020/12/26 05:14:16;;;;;;;7.47;5.97;;;8.70;99.90;;;;;;5075336;28;20225;-82
2020/12/26 05:16:43;;;;;;;7.13;6.05;;;8.70;99.90;;;;;;5075100;28;20198;-81
2020/12/26 05:19:10;;;;;;;14.77;6.20;;;8.70;99.90;;;;;;5075308;28;20557;-81
2020/12/26 05:21:36;;;;;;;7.90;6.93;;;8.50;99.90;;;;;;5075062;28;20198;-81
2020/12/26 05:24:04;;;;;;;8.88;6.63;;;8.50;99.90;;;;;;5074811;28;20221;-82
2020/12/26 05:26:31;;;;;;;8.38;7.50;;;8.50;99.90;;;;;;5074942;28;20194;-82
2020/12/26 05:29:01;;;;;;;8.95;6.78;;;8.50;99.90;;;;;;5074731;28;20252;-81
2020/12/26 05:34:23;;;;;;;13.60;8.63;;;8.60;99.90;;;;;;5090942;28;20530;-83
2020/12/26 05:36:49;;;;;;;9.43;7.50;;;8.60;99.90;;;;;;5070425;28;20190;-83
2020/12/26 05:39:15;;;;;;;13.18;8.07;;;8.70;99.90;;;;;;5070943;28;20617;-83
2020/12/26 05:41:43;;;;;;;11.02;7.80;;;8.70;99.90;;;;;;5070415;28;20534;-83
2020/12/26 05:44:11;;;;;;;14.48;7.78;;;8.80;99.90;;;;;;5070341;28;20657;-83
2020/12/26 05:46:37;;;;;;;12.98;7.43;;;8.80;99.90;;;;;;5070353;28;20201;-83
2020/12/26 05:49:25;;;;;;;13.38;7.88;;;8.80;99.90;;;;;;5070338;28;20194;-83
2020/12/26 05:51:53;;;;;;;9.57;7.28;;;8.80;99.90;;;;;;5070278;28;20273;-83
2020/12/26 05:54:20;;;;;;;8.38;7.38;;;8.70;99.90;;;;;;5060337;28;20250;-81
2020/12/26 05:56:46;;;;;;;7.45;6.85;;;8.50;99.90;;;;;;5050294;28;20199;-81
2020/12/26 05:59:23;;;;;;;12.10;7.60;;;8.60;99.90;;;;;;5050095;28;20190;-81
2020/12/26 06:01:50;;;;;;;7.85;7.07;;;8.60;99.90;;;;;;5050219;28;20195;-81
2020/12/26 06:04:20;;;;;;;11.93;8.00;;;8.60;99.90;;;;;;5049971;28;20620;-81
2020/12/26 06:06:51;;;;;;;9.20;7.45;;;8.60;99.90;;;;;;5050185;28;20195;-81
2020/12/26 06:09:19;;;;;;;7.55;6.80;;;8.60;99.90;;;;;;5050044;28;20199;-80
2020/12/26 06:11:46;;;;;;;9.00;6.95;;;8.60;99.90;;;;;;5049963;28;20195;-80
2020/12/26 06:14:17;;;;;;;9.05;6.75;;;8.60;99.90;;;;;;5049895;28;20231;-80
2020/12/26 06:16:49;;;;;;;11.77;8.20;;;8.60;99.90;;;;;;5049734;28;20195;-81
2020/12/26 06:19:18;;;;;;;13.68;8.65;;;8.50;99.90;;;;;;5049786;28;20206;-81
2020/12/26 06:21:50;;;;;;;9.85;8.45;;;8.60;99.90;;;;;;5049641;28;20541;-81
2020/12/26 06:24:17;;;;;;;12.77;9.43;;;8.50;99.90;;;;;;5049580;28;20219;-81
2020/12/26 06:26:46;;;;;;;9.05;8.13;;;8.40;99.90;;;;;;5049651;28;20195;-81
2020/12/26 06:29:15;;;;;;;16.58;9.45;;;8.50;99.90;;;;;;5049674;28;20207;-81
2020/12/26 06:31:43;;;;;;;9.98;8.70;;;8.50;99.90;;;;;;5049602;28;20210;-81
2020/12/26 06:34:10;;;;;;;12.45;8.93;;;8.60;99.90;;;;;;5049222;28;20239;-82
2020/12/26 06:36:37;;;;;;;8.95;8.05;;;8.70;99.90;;;;;;5049697;28;20194;-81
2020/12/26 06:39:26;;;;;;;10.23;9.15;;;8.60;99.90;;;;;;5049378;28;20195;-81
2020/12/26 06:42:10;;;;;;;12.00;8.77;;;8.60;99.90;;;;;;5049390;28;20253;-81
2020/12/26 06:44:37;;;;;;;10.70;8.30;;;8.60;99.90;;;;;;5042020;28;20199;-81
2020/12/26 06:47:03;;;;;;;14.75;8.90;;;8.50;99.90;;;;;;5035992;28;20192;-81
2020/12/26 06:49:29;;;;;;;12.68;9.38;;;8.50;99.90;;;;;;5035797;28;20199;-81
2020/12/26 06:51:57;;;;;;;10.10;8.02;;;8.50;99.90;;;;;;5035853;28;20203;-81
2020/12/26 06:54:46;;;;;;;8.50;7.70;;;8.40;99.90;;;;;;5035834;28;20223;-81
2020/12/26 06:57:37;;;;;;;10.98;6.90;;;8.50;99.90;;;;;;5035871;28;21296;-81
2020/12/26 07:00:27;;;;;;;8.70;7.70;;;8.50;99.90;;;;;;5016993;28;20203;-81
2020/12/26 07:03:15;;;;;;;8.00;7.20;;;8.50;99.90;;;;;;5035910;28;20191;-81
2020/12/26 07:05:42;;;;;;;8.60;7.70;;;8.50;99.90;;;;;;5035503;28;20290;-81
2020/12/26 07:08:19;;;;;;;9.50;7.47;;;8.50;99.90;;;;;;5035844;28;20199;-81
2020/12/26 07:10:46;;;;;;;8.35;7.00;;;8.60;99.90;;;;;;5035685;28;20219;-81
2020/12/26 07:13:43;;;;;;;8.75;7.22;;;8.50;99.90;;;;;;5035506;28;20611;-80
2020/12/26 07:16:38;;;;;;;8.35;6.60;;;8.50;99.90;;;;;;5035883;28;20225;-81
2020/12/26 07:19:36;;;;;;;8.07;7.28;;;8.40;99.90;;;;;;5035679;28;20536;-80
2020/12/26 07:22:04;;;;;;;7.53;6.32;;;8.50;99.90;;;;;;5035422;28;20195;-81
2020/12/26 07:24:36;;;;;;;11.27;7.60;;;8.40;99.90;;;;;;5035115;28;20220;-80
2020/12/26 07:27:17;;;;;;;9.30;7.10;;;8.40;99.90;;;;;;5035366;28;20199;-82
2020/12/26 07:30:05;;;;;;;8.88;7.45;;;8.50;99.90;;;;;;5035636;28;20199;-80
2020/12/26 07:32:46;;;;;;;9.95;7.70;;;8.40;99.90;;;;;;5035092;28;20236;-81
2020/12/26 07:35:36;;;;;;;7.88;7.05;;;8.40;99.90;;;;;;5035086;28;20195;-80
2020/12/26 07:38:20;;;;;;;8.27;7.22;;;8.40;99.90;;;;;;5035272;28;20249;-82
2020/12/26 07:40:47;;;;;;;7.93;6.40;;;8.40;99.90;;;;;;5035111;28;20547;-81
2020/12/26 07:43:16;;;;;;;8.93;7.53;;;8.40;99.90;;;;;;5034831;28;20313;-81
2020/12/26 07:45:44;;;;;;;7.45;6.75;;;8.40;99.90;;;;;;5034911;28;20558;-81
2020/12/26 07:48:11;;;;;;;12.82;7.72;;;8.40;99.90;;;;;;5034967;28;20678;-81
2020/12/26 07:50:39;;;;;;;9.57;8.40;;;8.40;99.90;;;;;;5034826;28;20199;-81
2020/12/26 07:53:07;;;;;;;8.00;7.25;;;8.40;99.90;;;;;;5034714;28;20297;-83
2020/12/26 07:55:34;;;;;;;18.60;7.00;;;8.50;99.90;;;;;;5034085;28;20249;-82
2020/12/26 07:58:02;;;;;;;11.45;7.00;;;8.50;99.90;;;;;;5034525;28;20203;-83
2020/12/26 08:00:31;;;;;;;12.30;8.63;;;8.50;99.90;;;;;;5034805;28;20204;-83
2020/12/26 08:02:59;;;;;;;9.88;7.75;;;8.40;99.90;;;;;;5034713;28;20196;-83
2020/12/26 08:05:27;;;;;;;11.57;7.85;;;8.40;99.90;;;;;;5034565;28;20561;-83
2020/12/26 08:07:54;;;;;;;8.70;7.45;;;8.30;99.90;;;;;;5034484;28;20195;-83
2020/12/26 08:10:20;;;;;;;11.00;7.82;;;8.20;99.90;;;;;;5034540;28;20199;-83
2020/12/26 08:12:51;;;;;;;11.90;7.88;;;8.30;99.90;;;;;;5034438;28;20211;-83
2020/12/26 08:15:26;;;;;;;11.45;7.82;;;8.30;99.90;;;;;;5034665;28;20206;-82
2020/12/26 08:17:55;;;;;;;13.35;9.90;;;8.30;99.90;;;;;;5034383;28;20202;-83
2020/12/26 08:20:23;;;;;;;14.38;9.45;;;8.30;99.90;;;;;;5034418;28;20199;-83
2020/12/26 08:22:50;;;;;;;12.13;10.85;;;8.30;99.90;;;;;;5034083;28;20199;-85
2020/12/26 08:25:19;;;;;;;11.43;9.85;;;8.20;99.90;;;;;;5034063;28;20219;-83
2020/12/26 08:27:45;;;;;;;16.58;10.82;;;8.20;99.90;;;;;;5034162;28;20269;-83
2020/12/26 08:30:14;;;;;;;11.70;10.50;;;8.30;99.90;;;;;;5033772;28;20222;-82
2020/12/26 08:32:56;;;;;;;15.13;10.05;;;8.30;99.90;;;;;;5033771;28;20231;-83
2020/12/26 08:35:25;;;;;;;12.27;10.07;;;8.20;99.90;;;;;;5034053;28;20191;-83
2020/12/26 08:38:08;;;;;;;11.10;9.35;;;8.30;99.90;;;;;;5034046;28;20203;-82
2020/12/26 08:40:36;;;;;;;10.70;9.68;;;8.30;99.90;;;;;;5034068;28;20214;-84
2020/12/26 08:43:03;;;;;;;11.68;9.57;;;8.40;99.90;;;;;;5033855;28;20203;-83
2020/12/26 08:45:31;;;;;;;11.20;9.32;;;8.30;99.90;;;;;;5033733;28;20199;-83
2020/12/26 08:48:12;;;;;;;12.93;8.60;;;8.30;99.90;;;;;;5033916;28;20195;-83
2020/12/26 08:50:38;;;;;;;13.35;9.27;;;8.40;99.90;;;;;;5033755;28;20191;-82
2020/12/26 08:53:08;;;;;;;10.40;9.40;;;8.30;99.90;;;;;;5033361;28;20694;-82
2020/12/26 08:55:50;;;;;;;9.90;8.90;;;8.20;99.90;;;;;;5033810;28;20721;-82
2020/12/26 08:58:27;;;;;;;9.55;8.15;;;8.20;99.90;;;;;;5031239;28;20712;-82
2020/12/26 09:00:58;;;;;;;10.82;8.75;;;8.20;99.90;;;;;;5033662;28;20700;-83
2020/12/26 09:03:26;;;;;;;8.60;7.70;;;8.20;99.90;;;;;;5033548;28;20192;-82
2020/12/26 09:05:54;;;;;;;12.35;8.05;;;8.30;99.90;;;;;;5033407;28;20213;-82
2020/12/26 09:08:27;;;;;;;7.97;6.90;;;8.30;99.90;;;;;;5033325;28;20264;-82
2020/12/26 09:11:02;;;;;;;8.95;6.55;;;8.30;99.90;;;;;;5033731;28;20200;-82
2020/12/26 09:13:36;;;;;;;8.43;6.95;;;8.20;99.90;;;;;;5033363;28;20223;-82
2020/12/26 09:16:05;;;;;;;9.50;8.48;;;8.30;99.90;;;;;;5033361;28;20195;-82
2020/12/26 09:18:42;;;;;;;8.50;6.53;;;8.40;99.90;;;;;;5033455;28;20352;-82
2020/12/26 09:21:19;;;;;;;9.70;7.20;;;8.40;99.90;;;;;;5033435;28;20203;-83
2020/12/26 09:23:45;;;;;;;8.23;7.25;;;8.40;99.90;;;;;;5032946;28;20694;-82
2020/12/26 09:26:13;;;;;;;9.40;6.20;;;8.40;99.90;;;;;;5033283;28;20198;-83
2020/12/26 09:28:47;;;;;;;7.25;6.55;;;8.20;99.90;;;;;;5033332;28;20231;-83
2020/12/26 09:31:15;;;;;;;8.27;6.20;;;8.30;99.90;;;;;;5029441;28;20560;-82
2020/12/26 09:33:42;;;;;;;7.28;6.68;;;8.30;99.90;;;;;;5022422;28;20235;-83
2020/12/26 09:36:11;;;;;;;7.30;6.22;;;8.30;99.90;;;;;;5015073;28;20200;-83
2020/12/26 09:38:38;;;;;;;7.53;6.82;;;8.40;99.90;;;;;;5022741;28;20551;-82
2020/12/26 09:41:16;;;;;;;7.60;6.05;;;8.50;99.90;;;;;;5033046;28;20204;-83
2020/12/26 09:43:43;;;;;;;7.53;6.35;;;8.50;99.90;;;;;;5032999;28;20291;-82
2020/12/26 09:46:10;;;;;;;6.90;6.20;;;8.50;99.90;;;;;;5021754;28;20189;-82
2020/12/26 09:48:36;;;;;;;7.53;6.40;;;8.60;99.90;;;;;;5028376;28;20198;-82
2020/12/26 09:51:04;;;;;;;7.93;6.03;;;8.60;99.90;;;;;;5035813;28;20254;-82
2020/12/26 09:53:30;;;;;;;8.10;5.82;;;8.60;99.90;;;;;;5019848;28;20219;-82
2020/12/26 09:55:56;;;;;;;7.65;5.95;;;8.60;99.90;;;;;;5013275;28;20266;-82
2020/12/26 09:58:22;;;;;;;8.00;5.72;;;8.50;99.90;;;;;;5026408;28;20200;-82
2020/12/26 10:00:48;;;;;;;10.23;5.93;;;8.50;99.90;;;;;;5031109;28;20192;-83
2020/12/26 10:03:15;;;;;;;6.55;5.85;;;8.60;99.90;;;;;;5014270;28;20195;-82
2020/12/26 10:05:42;;;;;;;8.10;6.10;;;8.50;99.90;;;;;;5032316;28;20188;-82
2020/12/26 10:08:09;;;;;;;8.00;6.30;;;8.50;99.90;;;;;;5031227;28;20236;-82
2020/12/26 10:10:35;;;;;;;7.10;6.40;;;8.60;99.90;;;;;;5021527;28;20204;-82
2020/12/26 10:13:01;;;;;;;7.78;7.03;;;8.60;99.90;;;;;;5012760;28;20243;-81
2020/12/26 10:15:27;;;;;;;8.45;6.13;;;8.70;99.90;;;;;;5012867;28;20718;-81
2020/12/26 10:17:54;;;;;;;6.70;5.68;;;8.70;99.90;;;;;;5013157;28;20235;-82
2020/12/26 10:20:20;;;;;;;7.13;5.55;;;8.70;99.90;;;;;;5015389;28;20208;-82
2020/12/26 10:22:47;;;;;;;7.20;6.03;;;8.60;99.90;;;;;;5016467;28;20200;-82
2020/12/26 10:25:14;;;;;;;6.70;5.20;;;8.60;99.90;;;;;;5016518;28;20648;-82
2020/12/26 10:27:40;;;;;;;7.75;6.22;;;8.60;99.90;;;;;;5016738;28;20278;-83
2020/12/26 10:30:06;;;;;;;7.55;5.72;;;8.70;99.90;;;;;;5016540;28;20255;-83
2020/12/26 10:32:32;;;;;;;7.32;5.70;;;8.70;99.90;;;;;;5016295;28;20282;-82
2020/12/26 10:34:59;;;;;;;11.23;5.57;;;8.80;99.90;;;;;;5016532;28;20610;-83
2020/12/26 10:37:25;;;;;;;8.27;5.90;;;8.90;99.90;;;;;;5016360;28;20200;-83
2020/12/26 10:39:52;;;;;;;6.63;5.93;;;8.80;99.90;;;;;;5016399;28;20235;-83
2020/12/26 10:42:19;;;;;;;7.22;6.00;;;8.80;99.90;;;;;;5016411;28;20192;-82
2020/12/26 10:44:45;;;;;;;6.50;5.78;;;8.80;99.90;;;;;;5016313;28;20200;-82
2020/12/26 10:47:12;;;;;;;7.28;5.95;;;8.80;99.90;;;;;;5016305;28;20199;-83
2020/12/26 10:49:38;;;;;;;8.38;6.20;;;8.80;99.90;;;;;;5016234;28;20683;-83
2020/12/26 10:52:04;;;;;;;11.40;6.32;;;8.80;99.90;;;;;;5016132;28;20204;-83
2020/12/26 10:54:30;;;;;;;13.50;7.43;;;8.90;99.90;;;;;;5016026;28;20239;-83
2020/12/26 10:56:56;;;;;;;8.10;5.55;;;8.90;99.90;;;;;;5016183;28;20604;-82
2020/12/26 10:59:24;;;;;;;8.18;6.50;;;9.00;99.90;;;;;;5016270;28;20255;-85
2020/12/26 11:01:50;;;;;;;7.68;5.07;;;9.00;99.90;;;;;;5016276;28;20197;-85
2020/12/26 11:04:16;;;;;;;7.90;5.60;;;8.90;99.90;;;;;;5016174;28;20203;-84
2020/12/26 11:06:48;;;;;;;8.15;6.25;;;9.10;99.90;;;;;;5016182;28;20218;-85
2020/12/26 11:09:14;;;;;;;9.55;5.93;;;9.10;99.90;;;;;;5016309;28;20603;-84
2020/12/26 11:11:46;;;;;;;9.00;5.15;;;8.90;99.90;;;;;;5016440;28;20197;-84
2020/12/26 11:14:12;;;;;;;8.90;5.43;;;8.90;99.90;;;;;;5015880;28;20228;-84
2020/12/26 11:16:39;;;;;;;6.20;4.85;;;8.90;99.90;;;;;;5016239;28;20693;-85
2020/12/26 11:19:05;;;;;;;6.50;5.80;;;8.80;99.90;;;;;;5016093;28;20597;-85
2020/12/26 11:21:31;;;;;;;6.97;5.10;;;8.80;99.90;;;;;;5016032;28;20219;-85
2020/12/26 11:23:58;;;;;;;10.65;5.32;;;8.80;99.90;;;;;;5015564;28;20296;-89
2020/12/26 11:26:24;;;;;;;6.53;5.15;;;8.90;99.90;;;;;;5015880;28;20196;-84
2020/12/26 11:28:50;;;;;;;11.48;4.85;;;9.00;99.90;;;;;;5030407;28;20529;-84
2020/12/26 11:31:21;;;;;;;5.72;4.38;;;8.90;99.90;;;;;;5030169;28;20235;-84
2020/12/26 11:33:48;;;;;;;5.25;4.05;;;8.70;99.90;;;;;;5015140;28;20243;-84
2020/12/26 11:36:18;;;;;;;6.78;5.00;;;8.70;99.90;;;;;;5014931;28;20193;-84
2020/12/26 11:38:45;;;;;;;5.30;4.15;;;8.70;99.90;;;;;;5015382;28;20200;-84
2020/12/26 11:41:15;;;;;;;5.72;4.38;;;8.80;99.90;;;;;;5015332;28;20196;-84
2020/12/26 11:43:41;;;;;;;6.43;4.30;;;8.80;99.90;;;;;;5015394;28;20196;-84
2020/12/26 11:46:08;;;;;;;4.70;3.65;;;8.90;99.90;;;;;;5015436;28;20196;-84
2020/12/26 11:48:34;;;;;;;6.57;4.07;;;8.90;99.90;;;;;;5015339;28;20247;-84
2020/12/26 11:51:01;;;;;;;5.28;4.05;;;8.90;99.90;;;;;;5015326;28;20671;-85
2020/12/26 11:53:27;;;;;;;6.07;4.80;;;9.00;99.90;;;;;;5015042;28;20585;-84
2020/12/26 11:55:53;;;;;;;7.65;3.88;;;9.10;99.90;;;;;;5015058;28;20207;-84
2020/12/26 11:58:21;;;;;;;7.30;5.13;;;9.10;99.90;;;;;;5015144;28;20279;-84
2020/12/26 12:00:48;;;;;;;6.72;4.97;;;9.10;99.90;;;;;;5015278;28;20227;-84
2020/12/26 12:03:14;;;;;;;8.63;4.40;;;9.30;99.90;;;;;;5015040;28;20200;-85
2020/12/26 12:05:40;;;;;;;5.72;4.07;;;9.40;99.90;;;;;;5014524;28;20820;-84
2020/12/26 12:08:07;;;;;;;6.50;4.05;;;9.60;99.90;;;;;;5014758;28;20196;-83
2020/12/26 12:10:33;;;;;;;6.18;3.95;;;9.50;99.90;;;;;;5014560;28;20200;-84
2020/12/26 12:12:59;;;;;;;4.43;4.00;;;9.50;99.90;;;;;;5014616;28;20220;-84
2020/12/26 12:15:26;;;;;;;5.90;3.95;;;9.50;99.90;;;;;;5014721;28;20553;-85
2020/12/26 12:17:52;;;;;;;6.88;4.53;;;9.50;99.90;;;;;;5014772;28;20200;-84
2020/12/26 12:20:18;;;;;;;4.25;3.85;;;9.60;99.90;;;;;;5014934;28;20199;-87
2020/12/26 12:22:44;;;;;;;3.92;3.58;;;9.60;99.90;;;;;;5014467;28;20219;-84
2020/12/26 12:25:11;;;;;;;3.78;3.38;;;9.50;99.90;;;;;;5014512;28;20200;-84
2020/12/26 12:27:37;;;;;;;4.00;3.55;;;9.60;99.90;;;;;;5014745;28;20207;-84
2020/12/26 12:30:04;;;;;;;6.88;2.90;;;9.60;99.90;;;;;;5014583;28;20192;-84
2020/12/26 12:32:30;;;;;;;3.72;2.75;;;9.40;99.90;;;;;;5014076;28;20235;-84
2020/12/26 12:34:56;;;;;;;4.15;2.47;;;9.40;99.90;;;;;;5030456;28;20187;-84
2020/12/26 12:37:23;;;;;;;7.43;3.90;;;9.60;99.90;;;;;;5047146;28;20206;-85
2020/12/26 12:39:49;;;;;;;2.92;2.63;;;9.50;99.90;;;;;;5045124;28;20195;-85
2020/12/26 12:42:16;;;;;;;3.15;2.85;;;9.60;99.90;;;;;;5047932;28;20187;-83
2020/12/26 12:44:42;;;;;;;3.85;2.65;;;9.40;99.90;;;;;;5051524;28;20207;-84
2020/12/26 12:47:08;;;;;;;4.32;2.88;;;9.30;99.90;;;;;;5039710;28;20202;-84
2020/12/26 12:49:34;;;;;;;3.38;2.55;;;9.40;99.90;;;;;;5044531;28;20202;-84
2020/12/26 12:52:03;;;;;;;3.42;3.05;;;9.40;99.90;;;;;;5046602;28;20190;-83
2020/12/26 12:54:30;;;;;;;3.88;3.13;;;9.40;99.90;;;;;;5014357;28;20231;-84
2020/12/26 12:56:56;;;;;;;3.47;2.50;;;9.40;99.90;;;;;;5053743;28;20199;-83
2020/12/26 12:59:23;;;;;;;3.70;2.65;;;9.40;99.90;;;;;;5046010;28;20188;-83
2020/12/26 13:01:50;;;;;;;4.20;2.75;;;9.20;99.90;;;;;;5033875;28;20196;-84
2020/12/26 13:04:16;;;;;;;2.78;2.40;;;9.10;99.90;;;;;;5033681;28;20249;-84